Time;durP1;ratioP1;P1;durP2;ratioP2;P2;SDS_P1;SDS_P2;PMS_P1;PMS_P2;Temp;Humidity;BMP_temperature;BMP_pressure;BME280_temperature;BME280_humidity;BME280_pressure;Samples;Min_cycle;Max_cycle;Signal;HPM_P1;HPM_P2
2022/12/23 00:00:11;;;;;;;146.10;34.85;;;7.10;99.90;;;;;;5010250;28;20407;-75
2022/12/23 00:02:37;;;;;;;148.50;35.50;;;7.00;99.90;;;;;;5027544;28;20435;-75
2022/12/23 00:05:04;;;;;;;159.73;36.90;;;7.00;99.90;;;;;;5010026;28;20411;-75
2022/12/23 00:07:30;;;;;;;137.55;34.40;;;7.00;99.90;;;;;;5027869;28;20807;-75
2022/12/23 00:09:55;;;;;;;133.07;34.67;;;7.00;99.90;;;;;;5009822;28;20418;-75
2022/12/23 00:15:06;;;;;;;150.60;35.40;;;6.90;99.90;;;;;;5003901;28;20422;-75
2022/12/23 00:17:39;;;;;;;125.85;35.42;;;6.90;99.90;;;;;;4992901;28;20422;-75
2022/12/23 00:20:06;;;;;;;151.80;36.30;;;6.90;99.90;;;;;;5007528;28;20418;-75
2022/12/23 00:25:16;;;;;;;180.73;37.63;;;6.90;99.90;;;;;;5009743;28;20498;-75
2022/12/23 00:28:00;;;;;;;142.02;36.13;;;6.90;99.90;;;;;;5009678;28;20552;-75
2022/12/23 00:30:27;;;;;;;143.07;36.63;;;6.90;99.90;;;;;;5009815;28;20487;-75
2022/12/23 00:32:52;;;;;;;136.43;36.30;;;6.90;99.90;;;;;;5027302;28;21285;-75
2022/12/23 00:35:18;;;;;;;141.45;36.00;;;6.90;99.90;;;;;;5027360;28;20486;-75
2022/12/23 00:37:44;;;;;;;163.17;36.53;;;6.90;99.90;;;;;;5027057;28;20399;-75
2022/12/23 00:42:59;;;;;;;113.00;34.25;;;6.90;99.90;;;;;;5024714;28;20417;-75
2022/12/23 00:45:25;;;;;;;134.48;33.92;;;6.90;99.90;;;;;;5009543;28;20430;-75
2022/12/23 00:50:37;;;;;;;124.97;34.80;;;6.90;99.90;;;;;;5026758;28;20423;-75
2022/12/23 00:53:04;;;;;;;145.02;38.55;;;6.80;99.90;;;;;;5009617;28;20922;-75
2022/12/23 00:55:29;;;;;;;132.88;37.28;;;6.90;99.90;;;;;;5027176;28;20403;-75
2022/12/23 00:57:55;;;;;;;139.23;37.75;;;6.90;99.90;;;;;;5009814;28;20419;-75
2022/12/23 01:05:35;;;;;;;139.30;37.43;;;6.90;99.90;;;;;;5009447;28;20455;-75
2022/12/23 01:06:00;;;;;;;183.48;38.72;;;6.90;99.90;;;;;;5004884;28;20440;-75
2022/12/23 01:08:26;;;;;;;136.75;35.13;;;6.90;99.90;;;;;;5003565;28;20894;-75
2022/12/23 01:10:52;;;;;;;121.40;34.47;;;6.90;99.90;;;;;;4996576;28;20495;-75
2022/12/23 01:13:17;;;;;;;152.33;37.33;;;6.90;99.90;;;;;;5031651;28;20478;-75
2022/12/23 01:15:43;;;;;;;138.37;35.60;;;6.90;99.90;;;;;;5013012;28;20414;-75
2022/12/23 01:18:09;;;;;;;175.13;36.80;;;6.90;99.90;;;;;;4996349;28;20446;-75
2022/12/23 01:20:37;;;;;;;165.97;37.70;;;6.90;99.90;;;;;;5030496;28;20434;-75
2022/12/23 01:23:03;;;;;;;140.10;35.90;;;6.90;99.90;;;;;;5013577;28;20426;-75
2022/12/23 01:25:29;;;;;;;162.30;37.08;;;6.90;99.90;;;;;;5029495;28;20406;-75
2022/12/23 01:27:55;;;;;;;176.55;38.65;;;6.90;99.90;;;;;;5013386;28;20415;-75
2022/12/23 01:30:21;;;;;;;140.30;36.67;;;6.90;99.90;;;;;;5013030;28;20434;-75
2022/12/23 01:32:47;;;;;;;187.07;39.30;;;6.90;99.90;;;;;;5030816;28;20506;-75
2022/12/23 01:35:12;;;;;;;167.48;37.65;;;6.90;99.90;;;;;;5030534;28;20406;-75
2022/12/23 01:37:38;;;;;;;168.13;36.57;;;6.90;99.90;;;;;;4996516;28;21102;-75
2022/12/23 01:40:04;;;;;;;147.10;36.58;;;6.90;99.90;;;;;;5030813;28;20486;-75
2022/12/23 01:42:42;;;;;;;125.70;34.83;;;6.90;99.90;;;;;;5012642;28;20396;-75
2022/12/23 01:45:15;;;;;;;145.45;37.63;;;6.90;99.90;;;;;;5031004;28;20959;-75
2022/12/23 01:47:48;;;;;;;166.05;38.70;;;6.90;99.90;;;;;;5030173;28;20429;-75
2022/12/23 01:50:20;;;;;;;169.65;38.97;;;6.90;99.90;;;;;;5012039;28;20451;-75
2022/12/23 01:53:01;;;;;;;186.30;40.67;;;6.90;99.90;;;;;;5011719;28;20419;-73
2022/12/23 01:55:30;;;;;;;218.15;41.42;;;6.90;99.90;;;;;;5012554;28;20447;-73
2022/12/23 01:58:04;;;;;;;160.60;40.45;;;6.90;99.90;;;;;;5029607;28;20419;-73
2022/12/23 02:09:15;;;;;;;193.25;38.35;;;6.90;99.90;;;;;;5029352;28;20460;-73
2022/12/23 02:12:02;;;;;;;182.95;36.35;;;6.90;99.90;;;;;;5011920;28;20426;-72
2022/12/23 02:18:03;;;;;;;171.13;36.75;;;6.90;99.90;;;;;;5012135;28;20423;-73
2022/12/23 02:20:53;;;;;;;212.05;39.03;;;6.90;99.90;;;;;;4977406;28;20519;-73
2022/12/23 02:23:46;;;;;;;261.50;41.93;;;6.90;99.90;;;;;;5011809;28;20760;-73
2022/12/23 02:26:42;;;;;;;182.80;38.22;;;6.90;99.90;;;;;;5028974;28;21002;-73
2022/12/23 02:29:45;;;;;;;279.25;41.75;;;6.80;99.90;;;;;;5029783;28;20403;-73
2022/12/23 02:32:26;;;;;;;196.13;40.87;;;6.80;99.90;;;;;;4986619;28;21131;-73
2022/12/23 02:34:54;;;;;;;274.00;42.42;;;6.90;99.90;;;;;;5029073;28;20422;-73
2022/12/23 02:37:46;;;;;;;278.38;39.03;;;6.90;99.90;;;;;;5011994;28;20919;-73
2022/12/23 02:40:24;;;;;;;341.15;41.60;;;6.80;99.90;;;;;;5021616;28;20494;-73
2022/12/23 02:43:15;;;;;;;237.32;40.95;;;6.90;99.90;;;;;;5011772;28;20431;-73
2022/12/23 02:45:48;;;;;;;210.13;40.95;;;6.80;99.90;;;;;;5028752;28;20415;-73
2022/12/23 02:48:18;;;;;;;185.00;41.47;;;6.90;99.90;;;;;;5001936;28;20442;-73
2022/12/23 02:50:46;;;;;;;215.95;41.35;;;6.90;99.90;;;;;;5028162;28;20429;-73
2022/12/23 02:53:18;;;;;;;182.45;40.58;;;6.90;99.90;;;;;;5029209;28;20562;-73
2022/12/23 02:55:47;;;;;;;266.98;42.67;;;6.90;99.90;;;;;;5011392;28;20438;-73
2022/12/23 02:58:16;;;;;;;251.55;43.17;;;6.90;99.90;;;;;;5011908;28;20418;-73
2022/12/23 03:00:42;;;;;;;225.98;41.53;;;6.90;99.90;;;;;;5010747;28;20475;-73
2022/12/23 03:03:08;;;;;;;223.77;42.23;;;6.90;99.90;;;;;;5011680;28;20412;-73
2022/12/23 03:05:41;;;;;;;195.20;41.40;;;6.90;99.90;;;;;;5024388;28;20546;-73
2022/12/23 03:08:17;;;;;;;213.93;42.95;;;6.90;99.90;;;;;;5010880;28;20441;-73
2022/12/23 03:11:12;;;;;;;201.88;42.10;;;6.90;99.90;;;;;;5008374;28;20913;-73
2022/12/23 03:13:40;;;;;;;202.45;42.97;;;6.90;99.90;;;;;;5026371;28;20415;-73
2022/12/23 03:16:23;;;;;;;209.13;43.13;;;6.90;99.90;;;;;;5027464;28;20416;-73
2022/12/23 03:18:48;;;;;;;217.70;41.87;;;6.90;99.90;;;;;;4990505;28;20786;-73
2022/12/23 03:21:34;;;;;;;256.43;45.17;;;6.90;99.90;;;;;;4989425;28;20422;-72
2022/12/23 03:24:08;;;;;;;236.95;43.72;;;6.90;99.90;;;;;;4989536;28;20509;-72
2022/12/23 03:26:44;;;;;;;243.63;43.85;;;6.90;99.90;;;;;;4989043;28;20426;-75
2022/12/23 03:29:25;;;;;;;237.13;42.92;;;6.90;99.90;;;;;;4977645;28;20427;-75
2022/12/23 03:31:53;;;;;;;224.73;41.40;;;6.90;99.90;;;;;;4987888;28;20411;-75
2022/12/23 03:34:24;;;;;;;209.40;41.45;;;6.90;99.90;;;;;;4989767;28;20605;-75
2022/12/23 03:36:54;;;;;;;239.57;42.65;;;6.90;99.90;;;;;;4987736;28;20414;-75
2022/12/23 03:39:23;;;;;;;209.60;40.25;;;6.90;99.90;;;;;;4987695;28;20953;-75
2022/12/23 03:42:02;;;;;;;217.05;40.53;;;6.90;99.90;;;;;;4977120;28;20795;-75
2022/12/23 03:44:33;;;;;;;221.00;41.15;;;6.90;99.90;;;;;;4988683;28;20415;-75
2022/12/23 03:47:09;;;;;;;220.40;39.95;;;6.90;99.90;;;;;;4989333;28;20506;-75
2022/12/23 03:49:50;;;;;;;220.75;39.15;;;6.90;99.90;;;;;;4984787;28;20993;-75
2022/12/23 03:52:21;;;;;;;211.32;39.83;;;6.90;99.90;;;;;;4988641;28;20774;-75
2022/12/23 03:54:52;;;;;;;197.05;37.72;;;6.90;99.90;;;;;;4975420;28;20415;-75
2022/12/23 03:57:20;;;;;;;224.95;38.97;;;6.90;99.90;;;;;;4971451;28;20418;-75
2022/12/23 03:59:52;;;;;;;192.80;37.13;;;6.90;99.90;;;;;;4987968;28;20421;-75
2022/12/23 04:02:28;;;;;;;203.68;37.88;;;6.90;99.90;;;;;;4991350;28;20974;-75
2022/12/23 04:05:16;;;;;;;195.88;37.10;;;6.90;99.90;;;;;;4971409;28;20527;-75
2022/12/23 04:07:47;;;;;;;189.40;36.55;;;6.90;99.90;;;;;;4988406;28;20512;-75
2022/12/23 04:10:13;;;;;;;163.85;34.67;;;6.90;99.90;;;;;;4987235;28;20414;-75
2022/12/23 04:12:39;;;;;;;143.57;32.72;;;6.90;99.90;;;;;;4987320;28;20414;-75
2022/12/23 04:15:06;;;;;;;147.03;33.20;;;6.90;99.90;;;;;;4988604;28;20505;-75
2022/12/23 04:17:32;;;;;;;153.15;33.28;;;6.90;99.90;;;;;;4991816;28;20409;-75
2022/12/23 04:19:57;;;;;;;159.98;32.55;;;6.90;99.90;;;;;;4999042;28;20413;-75
2022/12/23 04:22:23;;;;;;;163.37;33.23;;;6.90;99.90;;;;;;4981390;28;20935;-75
2022/12/23 04:24:49;;;;;;;136.32;31.02;;;6.90;99.90;;;;;;4990187;28;20417;-75
2022/12/23 04:27:15;;;;;;;127.33;29.33;;;6.90;99.90;;;;;;5007977;28;20436;-75
2022/12/23 04:29:41;;;;;;;154.23;31.05;;;6.90;99.90;;;;;;4998472;28;20397;-75
2022/12/23 04:32:07;;;;;;;159.70;30.70;;;6.90;99.90;;;;;;5007232;28;20412;-75
2022/12/23 04:34:33;;;;;;;111.13;26.98;;;6.90;99.90;;;;;;5002746;28;20421;-75
2022/12/23 04:36:58;;;;;;;120.80;27.33;;;6.90;99.90;;;;;;4998494;28;20555;-75
2022/12/23 04:39:24;;;;;;;112.03;27.48;;;6.90;99.90;;;;;;4996669;28;20443;-75
2022/12/23 04:41:50;;;;;;;156.67;29.83;;;6.90;99.90;;;;;;5005421;28;20432;-75
2022/12/23 04:44:16;;;;;;;177.50;29.20;;;6.90;99.90;;;;;;5007476;28;20781;-75
2022/12/23 04:46:41;;;;;;;157.25;28.08;;;6.90;99.90;;;;;;5006581;28;20420;-75
2022/12/23 04:49:07;;;;;;;151.87;27.40;;;6.80;99.90;;;;;;5005637;28;20425;-75
2022/12/23 04:51:33;;;;;;;181.48;28.48;;;6.80;99.90;;;;;;5005321;28;21269;-75
2022/12/23 04:53:58;;;;;;;130.10;26.75;;;6.80;99.90;;;;;;4994030;28;21709;-75
2022/12/23 04:56:24;;;;;;;151.37;26.47;;;6.70;99.90;;;;;;5000552;28;20441;-75
2022/12/23 04:58:50;;;;;;;139.63;24.92;;;6.70;99.90;;;;;;5007001;28;20571;-75
2022/12/23 05:01:15;;;;;;;147.18;26.30;;;6.60;99.90;;;;;;5008193;28;20436;-75
2022/12/23 05:03:41;;;;;;;142.57;24.67;;;6.70;99.90;;;;;;4995111;28;20781;-75
2022/12/23 05:06:07;;;;;;;215.98;28.00;;;6.60;99.90;;;;;;5007857;28;20405;-74
2022/12/23 05:08:33;;;;;;;181.35;28.33;;;6.60;99.90;;;;;;5007432;28;20916;-75
2022/12/23 05:10:59;;;;;;;126.05;26.67;;;6.60;99.90;;;;;;5007189;28;20777;-75
2022/12/23 05:13:25;;;;;;;190.48;28.20;;;6.50;99.90;;;;;;5007021;28;20413;-75
2022/12/23 05:15:52;;;;;;;147.83;26.67;;;6.50;99.90;;;;;;5007355;28;20405;-75
2022/12/23 05:18:19;;;;;;;144.80;27.40;;;6.50;99.90;;;;;;5018712;28;20545;-75
2022/12/23 05:20:45;;;;;;;123.63;26.38;;;6.50;99.90;;;;;;5009292;28;20505;-75
2022/12/23 05:23:11;;;;;;;159.23;27.55;;;6.50;99.90;;;;;;5009725;28;20516;-75
2022/12/23 05:25:37;;;;;;;144.00;24.95;;;6.50;99.90;;;;;;5009660;28;20430;-75
2022/12/23 05:28:04;;;;;;;192.65;28.50;;;6.50;99.90;;;;;;5014672;28;20516;-75
2022/12/23 05:30:30;;;;;;;193.73;26.63;;;6.50;99.90;;;;;;5026212;28;20403;-75
2022/12/23 05:32:56;;;;;;;247.27;28.60;;;6.50;99.90;;;;;;5025229;28;20414;-75
2022/12/23 05:35:23;;;;;;;156.20;24.30;;;6.50;99.90;;;;;;5008693;28;20419;-75
2022/12/23 05:37:49;;;;;;;139.30;23.75;;;6.40;99.90;;;;;;5006378;28;20419;-75
2022/12/23 05:40:15;;;;;;;108.88;24.00;;;6.40;99.90;;;;;;5026217;28;20767;-75
2022/12/23 05:42:40;;;;;;;118.70;23.45;;;6.40;99.90;;;;;;5026284;28;20418;-75
2022/12/23 05:45:06;;;;;;;93.70;23.87;;;6.40;99.90;;;;;;5026308;28;20407;-75
2022/12/23 05:47:32;;;;;;;113.53;24.35;;;6.40;99.90;;;;;;5025779;28;20418;-75
2022/12/23 05:49:58;;;;;;;139.77;24.17;;;6.40;99.90;;;;;;4991947;28;20407;-74
2022/12/23 05:52:23;;;;;;;132.20;24.53;;;6.40;99.90;;;;;;5025712;28;20782;-73
2022/12/23 05:54:49;;;;;;;109.00;23.20;;;6.40;99.90;;;;;;5028073;28;20410;-73
2022/12/23 05:57:15;;;;;;;102.88;22.65;;;6.40;99.90;;;;;;5011343;28;20418;-74
2022/12/23 05:59:40;;;;;;;97.87;22.33;;;6.40;99.90;;;;;;5030407;28;20406;-73
2022/12/23 06:02:06;;;;;;;108.82;23.05;;;6.40;99.90;;;;;;5030216;28;20445;-74
2022/12/23 06:04:31;;;;;;;132.37;23.53;;;6.30;99.90;;;;;;5030808;28;20425;-74
2022/12/23 06:06:57;;;;;;;172.85;24.95;;;6.30;99.90;;;;;;5029290;28;20827;-74
2022/12/23 06:09:23;;;;;;;166.47;24.63;;;6.30;99.90;;;;;;5012981;28;20415;-73
2022/12/23 06:11:48;;;;;;;303.63;27.83;;;6.20;99.90;;;;;;4994493;28;20426;-74
2022/12/23 06:14:14;;;;;;;158.32;23.92;;;6.20;99.90;;;;;;5030251;28;20435;-74
2022/12/23 06:16:40;;;;;;;137.50;22.23;;;6.20;99.90;;;;;;5010848;28;20459;-74
2022/12/23 06:19:06;;;;;;;132.07;23.38;;;6.20;99.90;;;;;;5029636;28;20411;-74
2022/12/23 06:21:32;;;;;;;110.75;22.15;;;6.10;99.90;;;;;;5029046;28;20431;-74
2022/12/23 06:23:57;;;;;;;133.97;23.67;;;6.10;99.90;;;;;;5030467;28;20407;-74
2022/12/23 06:26:25;;;;;;;205.10;27.25;;;6.10;99.90;;;;;;5011948;28;20452;-74
2022/12/23 06:28:51;;;;;;;176.05;25.17;;;6.00;99.90;;;;;;5012074;28;20994;-73
2022/12/23 06:31:16;;;;;;;307.07;30.00;;;6.00;99.90;;;;;;5029488;28;20490;-74
2022/12/23 06:33:42;;;;;;;258.17;27.65;;;6.00;99.90;;;;;;5029487;28;20942;-74
2022/12/23 06:36:08;;;;;;;265.42;29.08;;;5.90;99.90;;;;;;5029140;28;20892;-74
2022/12/23 06:38:34;;;;;;;137.45;23.65;;;5.90;99.90;;;;;;5011724;28;20415;-74
2022/12/23 06:41:00;;;;;;;328.33;30.87;;;5.90;99.90;;;;;;5029025;28;20847;-74
2022/12/23 06:43:25;;;;;;;363.73;31.83;;;5.90;99.90;;;;;;5011366;28;20497;-74
2022/12/23 06:45:51;;;;;;;434.52;34.88;;;5.90;99.90;;;;;;5029170;28;20405;-74
2022/12/23 06:48:17;;;;;;;472.63;35.00;;;5.90;99.90;;;;;;5029395;28;21170;-74
2022/12/23 06:50:42;;;;;;;379.70;29.73;;;5.90;99.90;;;;;;5005104;28;20960;-74
2022/12/23 06:53:08;;;;;;;417.50;31.17;;;5.80;99.90;;;;;;5026222;28;20566;-73
2022/12/23 06:55:34;;;;;;;396.30;30.83;;;5.80;99.90;;;;;;5027123;28;20449;-74
2022/12/23 06:58:00;;;;;;;374.95;29.73;;;5.80;99.90;;;;;;5010792;28;20411;-73
2022/12/23 07:00:25;;;;;;;312.92;26.83;;;5.70;99.90;;;;;;5024853;28;20410;-74
2022/12/23 07:02:54;;;;;;;308.53;29.30;;;5.80;99.90;;;;;;5010323;28;20419;-74
2022/12/23 07:05:20;;;;;;;286.95;28.20;;;5.70;99.90;;;;;;5028120;28;20403;-74
2022/12/23 07:07:45;;;;;;;326.58;29.42;;;5.70;99.90;;;;;;5028280;28;20395;-74
2022/12/23 07:10:11;;;;;;;274.83;26.07;;;5.70;99.90;;;;;;5010824;28;20415;-74
2022/12/23 07:12:37;;;;;;;358.90;29.63;;;5.70;99.90;;;;;;5028405;28;20407;-73
2022/12/23 07:15:05;;;;;;;288.13;27.42;;;5.70;99.90;;;;;;4998510;28;20403;-74
2022/12/23 07:17:31;;;;;;;239.98;26.35;;;5.70;99.90;;;;;;5011211;28;20456;-74
2022/12/23 07:19:56;;;;;;;299.95;30.17;;;5.70;99.90;;;;;;5009729;28;20419;-73
2022/12/23 07:22:22;;;;;;;307.15;31.92;;;5.70;99.90;;;;;;5011098;28;20435;-73
2022/12/23 07:24:48;;;;;;;235.37;28.73;;;5.80;99.90;;;;;;5010239;28;20403;-73
2022/12/23 07:27:13;;;;;;;280.30;34.25;;;5.90;99.90;;;;;;5028823;28;20450;-74
2022/12/23 07:29:39;;;;;;;293.60;34.20;;;5.80;99.90;;;;;;5011084;28;20903;-73
2022/12/23 07:32:04;;;;;;;198.48;30.35;;;5.90;99.90;;;;;;5011181;28;20414;-74
2022/12/23 07:34:30;;;;;;;234.55;31.30;;;5.90;99.90;;;;;;5010035;28;20421;-74
2022/12/23 07:36:56;;;;;;;166.27;30.50;;;6.00;99.90;;;;;;5010724;28;20411;-73
2022/12/23 07:39:21;;;;;;;173.02;30.60;;;6.00;99.90;;;;;;5009861;28;20415;-73
2022/12/23 07:41:47;;;;;;;159.27;31.53;;;6.00;99.90;;;;;;5028331;28;20431;-74
2022/12/23 07:44:13;;;;;;;153.07;30.58;;;6.00;99.90;;;;;;5010531;28;20418;-73
2022/12/23 07:46:38;;;;;;;155.57;30.88;;;6.10;99.90;;;;;;5028616;28;20928;-74
2022/12/23 07:49:04;;;;;;;189.57;31.20;;;6.10;99.90;;;;;;5026925;28;20486;-74
2022/12/23 07:51:30;;;;;;;145.65;30.60;;;6.10;99.90;;;;;;5011394;28;20408;-74
2022/12/23 07:53:56;;;;;;;183.55;31.55;;;6.10;99.90;;;;;;4993899;28;20445;-74
2022/12/23 07:56:22;;;;;;;159.63;31.90;;;6.20;99.90;;;;;;5010961;28;20516;-74
2022/12/23 07:58:49;;;;;;;175.20;32.37;;;6.20;99.90;;;;;;4993163;28;20990;-74
2022/12/23 08:01:14;;;;;;;170.05;32.53;;;6.20;99.90;;;;;;5009519;28;20441;-74
2022/12/23 08:03:40;;;;;;;160.02;32.42;;;6.20;99.90;;;;;;5010014;28;20804;-74
2022/12/23 08:06:08;;;;;;;225.43;34.33;;;6.20;99.90;;;;;;5028583;28;20415;-74
2022/12/23 08:08:34;;;;;;;211.27;33.97;;;6.20;99.90;;;;;;5009025;28;20423;-74
2022/12/23 08:11:02;;;;;;;183.05;30.55;;;6.20;99.90;;;;;;5028750;28;20895;-74
2022/12/23 08:13:30;;;;;;;190.00;30.23;;;6.10;99.90;;;;;;4980571;28;20418;-74
2022/12/23 08:15:58;;;;;;;146.05;27.88;;;6.20;99.90;;;;;;5028318;28;20501;-74
2022/12/23 08:18:24;;;;;;;167.77;26.80;;;6.10;99.90;;;;;;5009545;28;20408;-74
2022/12/23 08:21:04;;;;;;;212.38;27.77;;;6.00;99.90;;;;;;5010006;28;20466;-74
2022/12/23 08:23:31;;;;;;;240.23;29.27;;;6.00;99.90;;;;;;5009225;28;20425;-74
2022/12/23 08:26:04;;;;;;;261.20;27.40;;;6.00;99.90;;;;;;5010298;28;20439;-74
2022/12/23 08:28:30;;;;;;;304.23;28.52;;;6.00;99.90;;;;;;5008525;28;20441;-74
2022/12/23 08:31:07;;;;;;;307.37;29.27;;;5.90;99.90;;;;;;5026471;28;20415;-74
2022/12/23 08:33:38;;;;;;;267.95;26.83;;;5.90;99.90;;;;;;5000278;28;20442;-74
2022/12/23 08:36:05;;;;;;;203.43;27.83;;;5.90;99.90;;;;;;5026426;28;20437;-74
2022/12/23 08:38:32;;;;;;;278.90;28.40;;;5.90;99.90;;;;;;4993577;28;20422;-74
2022/12/23 08:40:58;;;;;;;236.05;26.48;;;5.90;99.90;;;;;;5007950;28;20449;-74
2022/12/23 08:43:23;;;;;;;306.15;30.63;;;5.90;99.90;;;;;;5010020;28;20418;-74
2022/12/23 08:45:49;;;;;;;212.20;24.57;;;5.90;99.90;;;;;;4992447;28;20411;-74
2022/12/23 08:48:15;;;;;;;277.67;29.67;;;5.90;99.90;;;;;;5025954;28;20414;-74
2022/12/23 08:50:42;;;;;;;311.38;31.60;;;5.90;99.90;;;;;;5007324;28;20490;-74
2022/12/23 08:53:09;;;;;;;241.53;30.33;;;5.80;99.90;;;;;;5009592;28;20470;-74
2022/12/23 08:55:44;;;;;;;163.90;25.52;;;5.80;99.90;;;;;;5026934;28;20407;-74
2022/12/23 08:58:10;;;;;;;140.30;25.95;;;5.80;99.90;;;;;;5027044;28;20910;-74
2022/12/23 09:00:37;;;;;;;172.57;25.95;;;5.80;99.90;;;;;;5026887;28;20443;-74
2022/12/23 09:03:02;;;;;;;108.53;24.03;;;5.80;99.90;;;;;;5026599;28;20464;-74
2022/12/23 09:05:28;;;;;;;94.00;23.63;;;5.80;99.90;;;;;;5027000;28;20905;-74
2022/12/23 09:07:54;;;;;;;91.80;22.90;;;5.90;99.90;;;;;;4993203;28;20835;-74
2022/12/23 09:10:20;;;;;;;85.70;21.85;;;5.90;99.90;;;;;;5026018;28;20430;-74
2022/12/23 09:12:46;;;;;;;78.55;22.00;;;5.90;99.90;;;;;;5025998;28;20407;-74
2022/12/23 09:15:12;;;;;;;72.90;21.30;;;6.00;99.90;;;;;;5008999;28;20783;-74
2022/12/23 09:17:37;;;;;;;125.13;22.77;;;6.00;99.90;;;;;;5027109;28;20579;-74
2022/12/23 09:20:03;;;;;;;266.05;27.77;;;6.00;99.90;;;;;;5026806;28;20453;-74
2022/12/23 09:22:31;;;;;;;114.55;20.38;;;6.00;99.90;;;;;;4992874;28;20490;-74
2022/12/23 09:24:57;;;;;;;89.13;20.05;;;5.90;99.90;;;;;;5006591;28;20834;-74
2022/12/23 09:27:23;;;;;;;92.20;20.57;;;5.90;99.90;;;;;;5026011;28;20438;-73
2022/12/23 09:29:48;;;;;;;114.30;21.45;;;5.90;99.90;;;;;;5011732;28;20764;-73
2022/12/23 09:32:14;;;;;;;90.83;21.03;;;5.90;99.90;;;;;;5013646;28;20407;-74
2022/12/23 09:34:39;;;;;;;75.10;20.08;;;5.90;99.90;;;;;;5030852;28;20969;-74
2022/12/23 09:37:05;;;;;;;76.03;20.53;;;5.90;99.90;;;;;;5031058;28;20402;-73
2022/12/23 09:39:31;;;;;;;79.10;20.80;;;6.00;99.90;;;;;;5031065;28;20395;-74
2022/12/23 09:42:38;;;;;;;79.05;20.92;;;6.00;99.90;;;;;;5030339;28;20550;-73
2022/12/23 09:45:24;;;;;;;82.77;22.00;;;6.00;99.90;;;;;;4974876;28;20794;-74
2022/12/23 09:47:53;;;;;;;89.30;19.90;;;6.10;99.90;;;;;;5027304;28;20794;-73
2022/12/23 09:50:25;;;;;;;97.90;20.55;;;6.10;99.90;;;;;;5012336;28;20506;-74
2022/12/23 09:53:07;;;;;;;186.43;24.58;;;6.10;99.90;;;;;;4994374;28;20461;-74
2022/12/23 09:55:49;;;;;;;106.60;22.02;;;6.20;99.90;;;;;;5012259;28;20416;-75
2022/12/23 09:58:35;;;;;;;98.75;22.98;;;6.30;99.90;;;;;;5022032;28;20965;-74
2022/12/23 10:01:28;;;;;;;83.15;21.73;;;6.30;99.90;;;;;;5007653;28;20446;-74
2022/12/23 10:04:13;;;;;;;91.90;22.65;;;6.40;99.90;;;;;;5029797;28;20783;-74
2022/12/23 10:06:43;;;;;;;101.00;22.37;;;6.50;99.90;;;;;;5026048;28;20446;-74
2022/12/23 10:09:12;;;;;;;97.07;21.20;;;6.50;99.90;;;;;;5029766;28;20403;-75
2022/12/23 10:11:42;;;;;;;93.90;21.42;;;6.50;99.90;;;;;;5029779;28;20419;-74
2022/12/23 10:14:20;;;;;;;96.15;23.00;;;6.60;99.90;;;;;;5012194;28;20530;-73
2022/12/23 10:16:55;;;;;;;110.90;23.85;;;6.60;99.90;;;;;;5028438;28;20411;-73
2022/12/23 10:19:32;;;;;;;91.60;23.33;;;6.60;99.90;;;;;;5029394;28;20486;-73
2022/12/23 10:22:02;;;;;;;72.82;21.45;;;6.70;99.90;;;;;;5029835;28;20435;-73
2022/12/23 10:24:37;;;;;;;105.75;24.02;;;6.80;99.90;;;;;;5026580;28;20411;-73
2022/12/23 10:27:16;;;;;;;91.18;23.38;;;7.00;99.90;;;;;;5028680;28;20399;-74
2022/12/23 10:29:42;;;;;;;75.30;23.13;;;7.10;99.90;;;;;;5026931;28;20490;-74
2022/12/23 10:32:35;;;;;;;76.40;22.80;;;7.30;99.90;;;;;;5027636;28;20557;-73
2022/12/23 10:35:26;;;;;;;72.70;21.35;;;7.40;99.90;;;;;;5025577;28;20415;-73
2022/12/23 10:38:01;;;;;;;70.28;20.88;;;7.30;99.90;;;;;;5024111;28;20419;-74
2022/12/23 10:41:05;;;;;;;63.67;21.77;;;7.40;99.90;;;;;;5011020;28;20465;-74
2022/12/23 10:43:56;;;;;;;72.50;20.75;;;7.30;99.90;;;;;;5002718;28;20430;-73
2022/12/23 10:46:41;;;;;;;68.90;21.38;;;7.30;99.90;;;;;;5024977;28;20422;-74
2022/12/23 10:49:22;;;;;;;77.70;21.25;;;7.30;99.90;;;;;;4994698;28;20419;-73
2022/12/23 10:52:02;;;;;;;85.63;21.85;;;7.20;99.90;;;;;;5025061;28;20415;-73
2022/12/23 10:54:35;;;;;;;77.50;21.85;;;7.20;99.90;;;;;;5007264;28;20435;-74
2022/12/23 10:57:04;;;;;;;65.38;19.27;;;7.20;99.90;;;;;;5025993;28;20502;-74
2022/12/23 10:59:31;;;;;;;91.85;23.63;;;7.20;99.90;;;;;;5026302;28;20410;-73
2022/12/23 11:02:10;;;;;;;123.18;25.63;;;7.20;99.90;;;;;;5028195;28;20434;-73
2022/12/23 11:04:38;;;;;;;244.73;30.73;;;7.20;99.90;;;;;;5028538;28;20427;-74
2022/12/23 11:07:07;;;;;;;221.57;29.87;;;7.20;99.90;;;;;;5027909;28;20871;-73
2022/12/23 11:09:49;;;;;;;288.02;33.13;;;7.10;99.90;;;;;;5023985;28;21096;-74
2022/12/23 11:12:22;;;;;;;198.15;30.73;;;7.20;99.90;;;;;;5023953;28;20411;-73
2022/12/23 11:14:55;;;;;;;231.43;32.00;;;7.20;99.90;;;;;;5025000;28;20915;-74
2022/12/23 11:17:28;;;;;;;317.52;36.15;;;7.20;99.90;;;;;;4982699;28;20415;-73
2022/12/23 11:20:09;;;;;;;295.10;33.63;;;7.20;99.90;;;;;;5026262;28;20422;-74
2022/12/23 11:22:35;;;;;;;306.60;31.60;;;7.20;99.90;;;;;;5028024;28;20434;-74
2022/12/23 11:25:34;;;;;;;248.35;29.30;;;7.20;99.90;;;;;;5009703;28;20414;-74
2022/12/23 11:28:10;;;;;;;168.77;24.85;;;7.20;99.90;;;;;;5027032;28;20462;-74
2022/12/23 11:30:59;;;;;;;166.60;25.17;;;7.20;99.90;;;;;;5027487;28;20509;-74
2022/12/23 11:33:28;;;;;;;163.25;26.52;;;7.20;99.90;;;;;;5026567;28;20422;-73
2022/12/23 11:36:05;;;;;;;153.05;26.45;;;7.20;99.90;;;;;;5028328;28;20467;-73
2022/12/23 11:38:32;;;;;;;186.33;28.60;;;7.20;99.90;;;;;;5000356;28;20423;-73
2022/12/23 11:40:58;;;;;;;155.50;26.80;;;7.20;99.90;;;;;;5027726;28;21184;-73
2022/12/23 11:43:26;;;;;;;194.65;27.15;;;7.20;99.90;;;;;;5028427;28;20418;-73
2022/12/23 11:46:29;;;;;;;143.55;25.17;;;7.20;99.90;;;;;;4994067;28;20415;-73
2022/12/23 11:49:22;;;;;;;111.35;23.45;;;7.20;99.90;;;;;;5010299;28;20779;-73
2022/12/23 11:52:25;;;;;;;143.27;24.03;;;7.30;99.90;;;;;;5021226;28;20426;-73
2022/12/23 11:54:54;;;;;;;123.68;24.23;;;7.30;99.90;;;;;;4999941;28;20415;-74
2022/12/23 11:57:43;;;;;;;156.13;25.23;;;7.30;99.90;;;;;;5010246;28;20763;-74
2022/12/23 12:00:21;;;;;;;121.10;24.25;;;7.30;99.90;;;;;;5005656;28;20415;-74
2022/12/23 12:02:57;;;;;;;93.70;23.42;;;7.30;99.90;;;;;;5023036;28;20403;-73
2022/12/23 12:05:34;;;;;;;56.90;18.70;;;7.30;99.90;;;;;;5028174;28;20411;-74
2022/12/23 12:08:04;;;;;;;51.47;17.80;;;7.30;99.90;;;;;;4994051;28;20404;-74
2022/12/23 12:10:34;;;;;;;57.50;18.60;;;7.20;99.90;;;;;;5026846;28;20403;-74
2022/12/23 12:13:05;;;;;;;69.57;19.97;;;7.20;99.90;;;;;;5006937;28;20479;-73
2022/12/23 12:15:41;;;;;;;63.57;18.60;;;7.20;99.90;;;;;;5027621;28;20456;-73
2022/12/23 12:18:11;;;;;;;60.47;19.20;;;7.20;99.90;;;;;;5010146;28;20429;-73
2022/12/23 12:20:43;;;;;;;67.03;22.03;;;7.20;99.90;;;;;;5015378;28;20430;-74
2022/12/23 12:23:19;;;;;;;54.10;20.38;;;7.20;99.90;;;;;;5027748;28;20434;-73
2022/12/23 12:25:53;;;;;;;68.28;20.30;;;7.20;99.90;;;;;;5027848;28;20417;-74
2022/12/23 12:28:23;;;;;;;64.93;19.55;;;7.20;99.90;;;;;;4992974;28;20518;-73
2022/12/23 12:31:18;;;;;;;54.45;20.05;;;7.20;99.90;;;;;;4993564;28;20474;-73
2022/12/23 12:33:53;;;;;;;65.25;21.67;;;7.10;99.90;;;;;;5010755;28;20415;-74
2022/12/23 12:36:46;;;;;;;55.65;20.38;;;7.20;99.90;;;;;;5026725;28;20442;-74
2022/12/23 12:39:21;;;;;;;52.13;20.40;;;7.20;99.90;;;;;;5009710;28;20426;-73
2022/12/23 12:41:55;;;;;;;57.80;20.13;;;7.20;99.90;;;;;;5027501;28;20839;-73
2022/12/23 12:44:54;;;;;;;56.43;19.83;;;7.20;99.90;;;;;;5026904;28;20417;-73
2022/12/23 12:47:37;;;;;;;52.08;18.65;;;7.20;99.90;;;;;;5015140;28;20442;-74
2022/12/23 12:50:28;;;;;;;49.28;18.52;;;7.30;99.90;;;;;;5009828;28;20763;-74
2022/12/23 12:52:59;;;;;;;54.22;19.30;;;7.30;99.90;;;;;;5023960;28;20405;-74
2022/12/23 12:55:30;;;;;;;49.65;18.88;;;7.30;99.90;;;;;;5026952;28;20418;-74
2022/12/23 12:57:56;;;;;;;55.75;18.92;;;7.20;99.90;;;;;;5026878;28;20415;-74
2022/12/23 13:00:23;;;;;;;56.25;19.83;;;7.30;99.90;;;;;;5022796;28;20418;-74
2022/12/23 13:03:06;;;;;;;57.90;20.80;;;7.30;99.90;;;;;;5027332;28;20411;-74
2022/12/23 13:05:56;;;;;;;58.22;20.63;;;7.30;99.90;;;;;;5029891;28;20507;-74
2022/12/23 13:08:47;;;;;;;58.78;21.98;;;7.30;99.90;;;;;;5013610;28;20748;-73
2022/12/23 13:11:43;;;;;;;79.03;34.60;;;7.30;99.90;;;;;;5013421;28;20427;-74
2022/12/23 13:14:47;;;;;;;76.18;29.15;;;7.30;99.90;;;;;;5020234;28;20411;-73